createdAt,value
2023-04-27T00:01:00.793Z,6.43
2023-04-27T00:03:28.392Z,6.97
2023-04-27T00:05:55.318Z,10.30
2023-04-27T00:08:22.072Z,8.65
2023-04-27T00:10:48.536Z,6.78
2023-04-27T00:13:15.017Z,6.70
2023-04-27T00:15:41.577Z,6.38
2023-04-27T00:18:08.155Z,8.13
2023-04-27T00:20:34.748Z,7.70
2023-04-27T00:23:01.262Z,8.07
2023-04-27T00:25:27.840Z,7.28
2023-04-27T00:27:54.382Z,6.53
2023-04-27T00:30:20.887Z,6.13
2023-04-27T00:32:47.389Z,5.35
2023-04-27T00:35:13.891Z,5.78
2023-04-27T00:37:40.410Z,6.03
2023-04-27T00:40:07.990Z,5.50
2023-04-27T00:42:35.736Z,5.78
2023-04-27T00:45:03.385Z,6.45
2023-04-27T00:47:30.742Z,5.38
2023-04-27T00:49:57.393Z,5.72
2023-04-27T00:52:23.983Z,5.70
2023-04-27T00:54:51.910Z,5.10
2023-04-27T00:57:21.261Z,4.85
2023-04-27T00:59:47.807Z,5.20
2023-04-27T01:02:14.479Z,5.97
2023-04-27T01:04:41.599Z,5.47
2023-04-27T01:07:08.400Z,5.10
2023-04-27T01:09:34.869Z,5.85
2023-04-27T01:12:01.599Z,6.57
2023-04-27T01:14:28.054Z,6.03
2023-04-27T01:16:54.531Z,5.70
2023-04-27T01:19:22.661Z,6.63
2023-04-27T01:21:49.311Z,6.30
2023-04-27T01:24:16.679Z,6.68
2023-04-27T01:26:43.122Z,6.60
2023-04-27T01:29:09.594Z,6.57
2023-04-27T01:31:36.268Z,6.95
2023-04-27T01:34:02.781Z,6.90
2023-04-27T01:36:29.303Z,6.10
2023-04-27T01:38:55.760Z,5.63
2023-04-27T01:41:22.234Z,6.90
2023-04-27T01:43:48.720Z,6.47
2023-04-27T01:46:15.862Z,6.40
2023-04-27T01:48:43.290Z,6.47
2023-04-27T01:51:09.797Z,6.07
2023-04-27T01:53:36.362Z,6.32
2023-04-27T01:56:03.545Z,6.82
2023-04-27T01:58:30.062Z,6.35
2023-04-27T02:00:56.574Z,7.32
2023-04-27T02:03:23.202Z,6.45
2023-04-27T02:05:49.838Z,6.28
2023-04-27T02:08:16.558Z,6.05
2023-04-27T02:10:43.005Z,6.65
2023-04-27T02:13:09.828Z,6.28
2023-04-27T02:15:36.556Z,7.03
2023-04-27T02:18:03.906Z,6.28
2023-04-27T02:20:33.819Z,6.15
2023-04-27T02:23:01.012Z,7.20
2023-04-27T02:25:27.866Z,6.75
2023-04-27T02:27:54.900Z,7.28
2023-04-27T02:30:21.829Z,6.72
2023-04-27T02:32:48.844Z,6.50
2023-04-27T02:35:15.507Z,6.03
2023-04-27T02:37:41.955Z,6.28
2023-04-27T02:40:09.407Z,6.63
2023-04-27T02:42:38.143Z,7.50
2023-04-27T02:45:06.951Z,6.22
2023-04-27T02:47:33.594Z,7.35
2023-04-27T02:50:01.124Z,6.75
2023-04-27T02:52:27.826Z,6.82
2023-04-27T02:54:54.324Z,7.45
2023-04-27T02:57:20.828Z,7.03
2023-04-27T02:59:47.276Z,6.80
2023-04-27T03:02:13.837Z,7.65
2023-04-27T03:04:40.375Z,6.70
2023-04-27T03:07:06.878Z,7.82
2023-04-27T03:09:33.421Z,7.00
2023-04-27T03:11:59.939Z,8.07
2023-04-27T03:14:26.406Z,6.78
2023-04-27T03:16:53.349Z,7.72
2023-04-27T03:19:19.961Z,7.00
2023-04-27T03:21:46.418Z,7.53
2023-04-27T03:24:12.884Z,6.93
2023-04-27T03:26:39.325Z,6.82
2023-04-27T03:29:06.617Z,6.95
2023-04-27T03:31:33.280Z,6.93
2023-04-27T03:33:59.745Z,6.75
2023-04-27T03:36:27.066Z,8.13
2023-04-27T03:38:53.574Z,8.10
2023-04-27T03:41:20.005Z,7.28
2023-04-27T03:43:47.576Z,7.63
2023-04-27T03:46:14.124Z,6.75
2023-04-27T03:48:40.664Z,6.60
2023-04-27T03:51:07.566Z,7.28
2023-04-27T03:53:34.328Z,6.93
2023-04-27T03:56:02.362Z,6.82
2023-04-27T03:58:28.829Z,7.15
2023-04-27T04:00:57.164Z,7.25
2023-04-27T04:03:23.880Z,6.70
2023-04-27T04:05:50.552Z,7.50
2023-04-27T04:08:16.976Z,8.07
2023-04-27T04:10:43.436Z,8.52
2023-04-27T04:13:09.945Z,6.60
2023-04-27T04:15:36.466Z,6.78
2023-04-27T04:18:03.062Z,6.95
2023-04-27T04:20:35.368Z,7.20
2023-04-27T04:23:01.819Z,7.60
2023-04-27T04:25:28.276Z,7.80
2023-04-27T04:27:55.015Z,7.40
2023-04-27T04:30:23.174Z,8.13
2023-04-27T04:32:49.761Z,7.80
2023-04-27T04:35:19.565Z,8.32
2023-04-27T04:37:46.728Z,7.93
2023-04-27T04:40:13.979Z,8.48
2023-04-27T04:42:40.546Z,8.10
2023-04-27T04:45:07.516Z,9.38
2023-04-27T04:47:34.355Z,9.10
2023-04-27T04:50:01.182Z,8.23
2023-04-27T04:52:27.641Z,8.50
2023-04-27T04:54:54.148Z,8.57
2023-04-27T04:57:20.640Z,8.48
2023-04-27T04:59:47.064Z,7.88
2023-04-27T05:02:13.593Z,9.15
2023-04-27T05:04:40.150Z,8.77
2023-04-27T05:07:06.747Z,10.13
2023-04-27T05:09:33.359Z,10.18
2023-04-27T05:12:01.770Z,8.88
2023-04-27T05:14:28.245Z,8.73
2023-04-27T05:16:54.750Z,9.63
2023-04-27T05:19:21.470Z,9.77
2023-04-27T05:21:47.938Z,9.93
2023-04-27T05:24:14.587Z,9.55
2023-04-27T05:26:43.006Z,9.65
2023-04-27T05:29:09.528Z,9.80
2023-04-27T05:31:36.296Z,11.23
2023-04-27T05:34:02.852Z,10.43
2023-04-27T05:36:29.461Z,10.93
2023-04-27T05:38:56.201Z,9.68
2023-04-27T05:41:23.780Z,12.07
2023-04-27T05:43:50.320Z,11.60
2023-04-27T05:46:16.939Z,11.23
2023-04-27T05:48:43.549Z,12.00
2023-04-27T05:51:10.177Z,10.75
2023-04-27T05:53:36.672Z,11.10
2023-04-27T05:56:04.576Z,10.85
2023-04-27T05:58:31.240Z,12.13
2023-04-27T06:00:57.811Z,11.02
2023-04-27T06:03:24.642Z,10.50
2023-04-27T06:05:58.633Z,11.48
2023-04-27T06:08:26.043Z,9.35
2023-04-27T06:10:52.931Z,9.85
2023-04-27T06:13:20.358Z,9.57
2023-04-27T06:15:47.426Z,9.90
2023-04-27T06:18:14.375Z,9.13
2023-04-27T06:20:41.969Z,8.85
2023-04-27T06:23:08.772Z,8.40
2023-04-27T06:25:37.452Z,8.45
2023-04-27T06:28:04.006Z,8.82
2023-04-27T06:30:30.586Z,8.75
2023-04-27T06:32:57.118Z,7.35
2023-04-27T06:35:23.629Z,6.35
2023-04-27T06:37:50.171Z,6.55
2023-04-27T06:40:16.721Z,5.78
2023-04-27T06:42:43.212Z,5.45
2023-04-27T06:45:10.006Z,5.75
2023-04-27T06:47:36.457Z,6.05
2023-04-27T06:50:04.018Z,6.57
2023-04-27T06:52:33.162Z,6.30
2023-04-27T06:54:59.708Z,6.38
2023-04-27T06:57:26.409Z,5.53
2023-04-27T06:59:52.922Z,5.70
2023-04-27T07:02:19.443Z,4.95
2023-04-27T07:04:46.229Z,5.18
2023-04-27T07:07:13.262Z,4.22
2023-04-27T07:09:39.716Z,4.63
2023-04-27T07:12:06.566Z,4.45
2023-04-27T07:14:33.920Z,4.97
2023-04-27T07:17:00.603Z,4.35
2023-04-27T07:19:27.120Z,4.85
2023-04-27T07:21:53.708Z,6.72
2023-04-27T07:24:20.595Z,5.30
2023-04-27T07:26:48.081Z,4.43
2023-04-27T07:29:26.341Z,4.45
2023-04-27T07:31:55.699Z,4.18
2023-04-27T07:34:22.679Z,5.28
2023-04-27T07:36:49.191Z,4.28
2023-04-27T07:39:15.935Z,4.18
2023-04-27T07:41:42.917Z,3.65
2023-04-27T07:44:09.446Z,4.15
2023-04-27T07:46:35.912Z,4.13
2023-04-27T07:49:02.458Z,4.00
2023-04-27T07:51:29.312Z,5.15
2023-04-27T07:53:56.360Z,4.10
2023-04-27T07:56:22.897Z,3.25
2023-04-27T07:58:49.450Z,4.40
2023-04-27T08:01:16.641Z,3.95
2023-04-27T08:03:44.414Z,4.00
2023-04-27T08:06:11.480Z,3.90
2023-04-27T08:08:38.185Z,4.28
2023-04-27T08:11:04.700Z,4.50
2023-04-27T08:13:36.194Z,3.50
2023-04-27T08:16:03.072Z,3.58
2023-04-27T08:18:29.575Z,3.70
2023-04-27T08:20:56.084Z,4.20
2023-04-27T08:23:22.648Z,3.92
2023-04-27T08:25:49.120Z,4.47
2023-04-27T08:28:15.936Z,3.60
2023-04-27T08:30:42.809Z,4.38
2023-04-27T08:33:09.360Z,3.08
2023-04-27T08:35:36.079Z,3.20
2023-04-27T08:38:02.670Z,3.53
2023-04-27T08:40:29.537Z,3.10
2023-04-27T08:42:58.572Z,3.45
2023-04-27T08:45:26.505Z,4.10
2023-04-27T08:47:53.803Z,3.78
2023-04-27T08:50:20.458Z,3.90
2023-04-27T08:52:48.174Z,3.25
2023-04-27T08:55:16.638Z,3.08
2023-04-27T08:57:57.295Z,3.03
2023-04-27T09:00:26.627Z,2.70
2023-04-27T09:02:53.678Z,3.20
2023-04-27T09:05:22.703Z,2.75
2023-04-27T09:08:05.816Z,3.53
2023-04-27T09:10:44.602Z,4.00
2023-04-27T09:13:11.113Z,3.72
2023-04-27T09:15:48.425Z,4.22
2023-04-27T09:18:22.289Z,3.22
2023-04-27T09:20:50.674Z,2.75
2023-04-27T09:23:32.300Z,4.07
2023-04-27T09:26:01.080Z,3.38
2023-04-27T09:28:29.342Z,3.10
2023-04-27T09:30:57.503Z,3.30
2023-04-27T09:33:34.092Z,4.30
2023-04-27T09:36:03.202Z,3.70
2023-04-27T09:38:30.540Z,3.45
2023-04-27T09:40:57.606Z,4.00
2023-04-27T09:43:24.925Z,3.17
2023-04-27T09:45:51.680Z,3.28
2023-04-27T09:48:18.745Z,5.93
2023-04-27T09:50:46.158Z,2.55
2023-04-27T09:53:15.675Z,3.58
2023-04-27T09:55:56.140Z,3.42
2023-04-27T09:58:50.529Z,3.92
2023-04-27T10:01:42.285Z,3.30
2023-04-27T10:04:35.158Z,3.55
2023-04-27T10:07:08.324Z,3.38
2023-04-27T10:09:41.692Z,3.60
2023-04-27T10:12:26.883Z,3.67
2023-04-27T10:14:59.071Z,3.45
2023-04-27T10:17:36.470Z,3.40
2023-04-27T10:20:07.503Z,3.63
2023-04-27T10:22:45.274Z,3.63
2023-04-27T10:25:22.983Z,3.97
2023-04-27T10:28:01.158Z,3.28
2023-04-27T10:30:32.744Z,3.90
2023-04-27T10:33:05.184Z,3.40
2023-04-27T10:35:40.451Z,3.92
2023-04-27T10:38:21.828Z,3.53
2023-04-27T10:41:02.259Z,3.45
2023-04-27T10:43:31.289Z,3.42
2023-04-27T10:46:14.960Z,3.50
2023-04-27T10:48:43.415Z,3.72
2023-04-27T10:51:10.523Z,3.90
2023-04-27T10:53:37.996Z,4.55
2023-04-27T10:56:06.990Z,3.95
2023-04-27T10:58:45.334Z,2.20
2023-04-27T11:01:24.756Z,3.60
2023-04-27T11:03:58.937Z,4.57
2023-04-27T11:06:28.070Z,4.22
2023-04-27T11:08:54.957Z,4.20
2023-04-27T11:11:22.585Z,4.18
2023-04-27T11:13:50.501Z,4.60
2023-04-27T11:16:17.071Z,4.40
2023-04-27T11:18:43.666Z,4.30
2023-04-27T11:21:12.764Z,4.70
2023-04-27T11:23:40.070Z,4.32
2023-04-27T11:26:09.534Z,4.90
2023-04-27T11:28:36.266Z,4.40
2023-04-27T11:31:04.459Z,4.10
2023-04-27T11:33:31.302Z,4.78
2023-04-27T11:35:58.157Z,4.47
2023-04-27T11:38:25.242Z,4.43
2023-04-27T11:41:07.906Z,6.15
2023-04-27T11:43:35.129Z,3.83
2023-04-27T11:46:06.009Z,4.88
2023-04-27T11:48:32.682Z,4.68
2023-04-27T11:51:00.543Z,3.90
2023-04-27T11:53:38.226Z,4.15
2023-04-27T11:56:07.788Z,5.03
2023-04-27T11:58:36.202Z,4.55
2023-04-27T12:01:06.705Z,5.75
2023-04-27T12:03:33.810Z,4.78
2023-04-27T12:06:16.088Z,5.50
2023-04-27T12:08:47.474Z,4.70
2023-04-27T12:11:14.069Z,5.00
2023-04-27T12:13:40.750Z,4.72
2023-04-27T12:16:07.486Z,4.03
2023-04-27T12:18:34.100Z,4.43
2023-04-27T12:21:03.157Z,6.43
2023-04-27T12:23:30.181Z,4.65
2023-04-27T12:25:56.689Z,4.35
2023-04-27T12:28:23.424Z,4.47
2023-04-27T12:30:50.014Z,5.40
2023-04-27T12:33:16.907Z,4.97
2023-04-27T12:35:43.458Z,4.72
2023-04-27T12:38:09.963Z,4.82
2023-04-27T12:40:36.614Z,5.10
2023-04-27T12:43:03.094Z,6.10
2023-04-27T12:45:29.597Z,5.10
2023-04-27T12:48:03.454Z,2.53
2023-04-27T12:50:32.138Z,4.78
2023-04-27T12:52:59.048Z,4.60
2023-04-27T12:55:33.864Z,4.53
2023-04-27T12:58:01.541Z,4.32
2023-04-27T13:00:29.373Z,5.18
2023-04-27T13:02:56.585Z,5.20
2023-04-27T13:05:23.509Z,4.82
2023-04-27T13:07:50.146Z,4.85
2023-04-27T13:10:16.658Z,5.10
2023-04-27T13:12:43.280Z,5.18
2023-04-27T13:15:10.204Z,5.40
2023-04-27T13:17:36.749Z,6.57
2023-04-27T13:20:07.247Z,5.03
2023-04-27T13:22:33.719Z,5.07
2023-04-27T13:25:00.344Z,5.07
2023-04-27T13:27:28.454Z,2.60
2023-04-27T13:29:55.274Z,4.75
2023-04-27T13:32:22.315Z,5.00
2023-04-27T13:34:49.256Z,4.93
2023-04-27T13:37:16.571Z,4.70
2023-04-27T13:39:43.188Z,4.97
2023-04-27T13:42:09.853Z,5.03
2023-04-27T13:44:36.365Z,5.03
2023-04-27T13:47:03.114Z,5.25
2023-04-27T13:49:29.693Z,5.32
2023-04-27T13:51:56.342Z,6.20
2023-04-27T13:54:22.813Z,5.60
2023-04-27T13:56:49.328Z,5.30
2023-04-27T13:59:16.692Z,5.38
2023-04-27T14:01:43.477Z,5.10
2023-04-27T14:04:10.279Z,5.45
2023-04-27T14:06:36.846Z,5.32
2023-04-27T14:09:03.994Z,5.57
2023-04-27T14:11:30.553Z,5.15
2023-04-27T14:13:57.979Z,5.60
2023-04-27T14:16:24.634Z,5.35
2023-04-27T14:18:52.252Z,5.93
2023-04-27T14:21:18.889Z,5.53
2023-04-27T14:23:45.479Z,5.88
2023-04-27T14:26:12.178Z,5.25
2023-04-27T14:28:38.712Z,6.20
2023-04-27T14:31:05.235Z,6.45
2023-04-27T14:33:31.740Z,5.20
2023-04-27T14:35:58.303Z,6.03
2023-04-27T14:38:24.841Z,6.03
2023-04-27T14:40:51.316Z,6.07
2023-04-27T14:43:18.052Z,6.30
2023-04-27T14:45:51.553Z,5.80
2023-04-27T14:48:22.141Z,6.25
2023-04-27T14:50:48.804Z,5.75
2023-04-27T14:53:15.298Z,6.28
2023-04-27T14:55:43.819Z,6.22
2023-04-27T14:58:10.533Z,5.57
2023-04-27T15:00:37.108Z,5.97
2023-04-27T15:03:03.824Z,5.82
2023-04-27T15:05:30.443Z,6.40
2023-04-27T15:07:56.883Z,5.75
2023-04-27T15:10:23.326Z,6.15
2023-04-27T15:12:49.782Z,6.40
2023-04-27T15:15:16.299Z,6.47
2023-04-27T15:17:42.835Z,5.57
2023-04-27T15:20:10.795Z,5.90
2023-04-27T15:22:37.260Z,6.00
2023-04-27T15:25:03.982Z,6.75
2023-04-27T15:27:30.595Z,6.47
2023-04-27T15:29:58.165Z,6.07
2023-04-27T15:32:29.776Z,5.88
2023-04-27T15:34:57.873Z,6.13
2023-04-27T15:37:25.522Z,5.85
2023-04-27T15:39:52.003Z,6.72
2023-04-27T15:42:18.455Z,5.40
2023-04-27T15:44:44.918Z,6.15
2023-04-27T15:47:12.899Z,5.93
2023-04-27T15:49:53.470Z,6.30
2023-04-27T15:52:23.716Z,6.22
2023-04-27T15:54:50.178Z,7.25
2023-04-27T15:57:18.198Z,6.65
2023-04-27T15:59:44.701Z,6.47
2023-04-27T16:02:13.287Z,6.40
2023-04-27T16:04:39.884Z,6.05
2023-04-27T16:07:07.413Z,5.78
2023-04-27T16:09:40.123Z,6.20
2023-04-27T16:12:06.874Z,6.00
2023-04-27T16:14:33.394Z,6.15
2023-04-27T16:17:02.609Z,5.95
2023-04-27T16:19:29.787Z,6.70
2023-04-27T16:21:56.354Z,6.00
2023-04-27T16:24:22.902Z,5.78
2023-04-27T16:26:49.377Z,6.32
2023-04-27T16:29:16.178Z,6.43
2023-04-27T16:31:44.704Z,7.20
2023-04-27T16:34:11.200Z,6.80
2023-04-27T16:36:37.767Z,7.28
2023-04-27T16:39:05.078Z,7.50
2023-04-27T16:41:31.846Z,6.50
2023-04-27T16:43:58.353Z,6.15
2023-04-27T16:46:24.866Z,5.65
2023-04-27T16:48:51.566Z,7.40
2023-04-27T16:51:18.112Z,7.63
2023-04-27T16:53:44.568Z,6.85
2023-04-27T16:56:13.352Z,6.28
2023-04-27T16:58:41.003Z,7.03
2023-04-27T17:01:07.705Z,6.95
2023-04-27T17:03:35.975Z,7.25
2023-04-27T17:06:03.177Z,7.03
2023-04-27T17:08:29.765Z,6.88
2023-04-27T17:10:56.422Z,6.28
2023-04-27T17:13:22.942Z,6.65
2023-04-27T17:15:49.948Z,6.88
2023-04-27T17:18:22.441Z,9.00
2023-04-27T17:20:48.947Z,7.10
2023-04-27T17:23:15.584Z,7.93
2023-04-27T17:25:42.090Z,7.70
2023-04-27T17:28:09.037Z,10.73
2023-04-27T17:30:35.540Z,8.52
2023-04-27T17:33:03.131Z,8.95
2023-04-27T17:35:30.401Z,7.22
2023-04-27T17:37:56.916Z,12.02
2023-04-27T17:40:23.587Z,13.82
2023-04-27T17:42:50.432Z,7.30
2023-04-27T17:45:16.895Z,10.63
2023-04-27T17:47:43.425Z,8.13
2023-04-27T17:50:10.255Z,8.55
2023-04-27T17:52:36.782Z,9.52
2023-04-27T17:55:03.360Z,8.75
2023-04-27T17:57:29.853Z,8.85
2023-04-27T17:59:56.362Z,7.20
2023-04-27T18:02:23.170Z,8.55
2023-04-27T18:04:49.849Z,7.80
2023-04-27T18:07:18.549Z,7.63
2023-04-27T18:09:45.386Z,7.40
2023-04-27T18:12:12.008Z,9.32
2023-04-27T18:14:38.704Z,8.48
2023-04-27T18:17:05.456Z,7.32
2023-04-27T18:19:31.943Z,8.70
2023-04-27T18:21:58.432Z,8.90
2023-04-27T18:24:25.232Z,8.45
2023-04-27T18:26:51.989Z,7.43
2023-04-27T18:29:18.580Z,7.90
2023-04-27T18:31:45.662Z,8.15
2023-04-27T18:34:12.296Z,7.72
2023-04-27T18:36:38.743Z,7.65
2023-04-27T18:39:05.244Z,6.88
2023-04-27T18:41:32.207Z,6.72
2023-04-27T18:44:06.041Z,7.68
2023-04-27T18:46:33.132Z,7.40
2023-04-27T18:49:00.945Z,8.07
2023-04-27T18:51:29.038Z,7.55
2023-04-27T18:53:56.348Z,8.25
2023-04-27T18:56:23.334Z,8.23
2023-04-27T18:58:50.165Z,8.63
2023-04-27T19:01:22.022Z,7.25
2023-04-27T19:03:48.790Z,8.57
2023-04-27T19:06:15.846Z,8.65
2023-04-27T19:08:43.574Z,8.20
2023-04-27T19:11:10.844Z,9.15
2023-04-27T19:13:37.856Z,9.07
2023-04-27T19:16:05.219Z,9.20
2023-04-27T19:18:31.770Z,8.57
2023-04-27T19:20:58.567Z,8.70
2023-04-27T19:23:25.152Z,9.65
2023-04-27T19:25:51.838Z,9.35
2023-04-27T19:28:21.697Z,10.30
2023-04-27T19:30:57.347Z,8.70
2023-04-27T19:33:23.828Z,8.25
2023-04-27T19:35:50.500Z,8.43
2023-04-27T19:38:16.976Z,9.48
2023-04-27T19:40:43.479Z,8.60
2023-04-27T19:43:11.845Z,8.77
2023-04-27T19:45:38.958Z,9.88
2023-04-27T19:48:06.639Z,9.60
2023-04-27T19:50:33.498Z,10.82
2023-04-27T19:53:00.063Z,10.15
2023-04-27T19:55:26.637Z,9.93
2023-04-27T19:57:53.127Z,8.88
2023-04-27T20:00:19.892Z,8.55
2023-04-27T20:02:46.634Z,8.25
2023-04-27T20:05:13.707Z,8.15
2023-04-27T20:07:40.945Z,9.35
2023-04-27T20:10:07.730Z,8.35
2023-04-27T20:15:05.233Z,8.48
2023-04-27T20:17:31.961Z,8.85
2023-04-27T20:19:58.431Z,7.28
2023-04-27T20:22:24.990Z,8.90
2023-04-27T20:24:51.530Z,7.28
2023-04-27T20:27:18.104Z,7.75
2023-04-27T20:29:46.539Z,7.47
2023-04-27T20:32:13.314Z,7.47
2023-04-27T20:34:39.818Z,7.10
2023-04-27T20:37:06.299Z,7.47
2023-04-27T20:39:32.837Z,7.20
2023-04-27T20:42:00.134Z,8.27
2023-04-27T20:44:26.826Z,8.00
2023-04-27T20:46:53.338Z,7.43
2023-04-27T20:49:31.926Z,8.50
2023-04-27T20:52:01.532Z,8.05
2023-04-27T20:54:28.059Z,7.75
2023-04-27T20:56:54.492Z,7.78
2023-04-27T20:59:21.007Z,7.70
2023-04-27T21:01:47.510Z,6.40
2023-04-27T21:04:14.348Z,7.15
2023-04-27T21:06:41.713Z,7.43
2023-04-27T21:09:08.193Z,7.55
2023-04-27T21:11:34.903Z,7.55
2023-04-27T21:14:01.423Z,7.63
2023-04-27T21:16:27.976Z,7.90
2023-04-27T21:18:54.477Z,7.72
2023-04-27T21:21:22.095Z,7.97
2023-04-27T21:23:54.402Z,7.18
2023-04-27T21:26:27.443Z,7.53
2023-04-27T21:28:53.955Z,7.82
2023-04-27T21:31:20.884Z,7.80
2023-04-27T21:33:47.512Z,7.35
2023-04-27T21:36:13.955Z,7.43
2023-04-27T21:38:40.423Z,6.95
2023-04-27T21:41:07.496Z,7.78
2023-04-27T21:43:34.000Z,7.75
2023-04-27T21:46:00.690Z,7.60
2023-04-27T21:48:27.244Z,7.03
2023-04-27T21:50:53.707Z,6.70
2023-04-27T21:53:20.298Z,7.60
2023-04-27T21:55:46.772Z,8.27
2023-04-27T21:58:13.225Z,7.45
2023-04-27T22:00:39.701Z,7.55
2023-04-27T22:03:06.336Z,7.93
2023-04-27T22:05:33.502Z,7.35
2023-04-27T22:08:00.029Z,7.22
2023-04-27T22:10:26.560Z,8.18
2023-04-27T22:12:53.000Z,7.38
2023-04-27T22:15:20.315Z,6.85
2023-04-27T22:17:47.199Z,8.60
2023-04-27T22:20:14.375Z,6.90
2023-04-27T22:22:41.199Z,6.93
2023-04-27T22:25:08.233Z,7.88
2023-04-27T22:27:41.952Z,7.80
2023-04-27T22:30:11.493Z,6.85
2023-04-27T22:32:38.036Z,7.63
2023-04-27T22:35:08.645Z,8.02
2023-04-27T22:37:37.234Z,7.68
2023-04-27T22:40:05.887Z,7.35
2023-04-27T22:42:32.424Z,7.63
2023-04-27T22:44:58.883Z,7.68
2023-04-27T22:49:54.530Z,7.50
2023-04-27T22:52:21.838Z,7.78
2023-04-27T22:54:48.317Z,7.43
2023-04-27T22:57:14.868Z,7.80
2023-04-27T22:59:41.475Z,7.80
2023-04-27T23:02:08.017Z,7.45
2023-04-27T23:04:34.491Z,8.50
2023-04-27T23:07:01.059Z,8.27
2023-04-27T23:09:27.720Z,7.38
2023-04-27T23:11:54.874Z,8.30
2023-04-27T23:14:21.407Z,7.82
2023-04-27T23:16:47.885Z,7.78
2023-04-27T23:19:14.541Z,7.85
2023-04-27T23:21:41.275Z,7.95
2023-04-27T23:24:07.793Z,7.55
2023-04-27T23:26:34.291Z,6.97
2023-04-27T23:29:00.762Z,8.07
2023-04-27T23:31:27.651Z,7.70
2023-04-27T23:33:54.168Z,8.07
2023-04-27T23:36:21.071Z,7.43
2023-04-27T23:38:47.543Z,9.05
2023-04-27T23:41:14.075Z,7.95
2023-04-27T23:43:40.510Z,8.18
2023-04-27T23:46:07.176Z,7.82
2023-04-27T23:48:33.658Z,8.38
2023-04-27T23:51:01.149Z,7.85
2023-04-27T23:53:28.232Z,7.60
2023-04-27T23:55:55.306Z,8.10
2023-04-27T23:58:23.901Z,7.30
